Share

Howard, GA (31039)

Potterville (KGAREYNO2) Elev 509 ft | 32.52 °N, 84.12 °W | Change Station
Active Advisory: Areal Flood Watch

Current weather conditions updated 6 minutes ago

Overcast
Overcast
66.5 °F
Feels Like 66.5 °F
N
5.0
Wind Variable Wind from ESE
Gusts 10.0 mph
Sunrise 7:05 AM
Sunset 8:08 PM
Moon Waning Gibbous

Tomorrow is forecast to be Much Cooler than today. Rain, heavy at times.

Pressure 30.32 in
Visibility 10.0 miles
Clouds Mostly Cloudy 4100 ft
Overcast 4700 ft
Dew Point 50 °F
Humidity 56%
Rainfall 0.00 in
Snow Depth Not available.
UV 2 out of 16
Pollen 9.40 out of 12
Air Quality Not available.
Flu Activity Sporadic
METAR KOPN 172055Z AUTO 11006KT 10SM BKN041 OVC047 17/03 A3032 RMK AO2 LTG DSNT SW

More Conditions Fewer Conditions

Pressure 30.32 in
Visibility 10.0 miles
Clouds Mostly Cloudy 4100 ft
Overcast 4700 ft
Dew Point 50 °F
Humidity 56%
Rainfall 0.00 in
Snow Depth Not available.
UV 2 out of 16
Pollen 9.40 out of 12
Air Quality Not available.
Flu Activity Sporadic
METAR KOPN 172055Z AUTO 11006KT 10SM BKN041 OVC047 17/03 A3032 RMK AO2 LTG DSNT SW

More Conditions Fewer Conditions

10-Day Forecast

Almanac

Astronomy

Apr. 17, 2014 Rise Set
Actual Time 7:05 AM EDT 8:08 PM EDT
Civil Twilight 6:39 AM EDT 8:33 PM EDT
Nautical Twilight 6:09 AM EDT 9:03 PM EDT
Astronomical Twilight 5:38 AM EDT 9:35 PM EDT
Moon 10:46 PM EDT 8:42 AM EDT
Length of Visible Light 13h 53m
Length of Day
13h 03m
Tomorrow will be 1m 53s longer.
Waning Gibbous, 92% of the Moon is Illuminated
Today
Waning Gibbous
Apr 22
Last Quarter
Apr 29
New
May 6
First Quarter
May 14
Full

Today's Extremes

State Highs State Lows

Community

  • Morning Light
    Morning Light
  • New Day
    New Day
  • Lake Michigan Sunrise
    Lake Michigan Sunrise
  • sunset from izmir, narlıdere
    sunset from izmir, narlıdere
  • oregon cherry
    oregon cherry

WunderPhotos

Upload Photos

1,702,126 photos uploaded!

Nearby

Snow Depth

Station Depth Elevation
No new snow has been reported.

Coastal Water Temperatures

Place Temperature
No Stations Reporting

Earthquake Activity

City Distance Mag. Time & Date
No recent earthquake activity has been reported nearby.
Minimum magnitude displayed is 2.5.

Nearby Weather Stations

Station Location Temp. Dew Point Humidity Wind Precip. Elev Updated Type
Potterville, Reynolds, GA 66.5 °F 50 °F 56% ESE  at  5.0 mph 0.00 in / hr 509 ft 5:07 PM EDT Normal
Reynolds, GA 66.6 °F 50 °F 55% ENE  at  3.0 mph - / hr 433 ft 5:04 PM EDT Normal
WA4RG, Fort Valley, GA 65.6 °F 48 °F 52% NE  at  2.0 mph 0.00 in / hr 528 ft 5:14 PM EDT Rapid Fire

Show More Stations Show Fewer Stations

What do you think?

We're not finished. Please let us know what you like, what you don't like, and what you are still missing.